createdAt,value
2022-09-30T00:01:43.994Z,15.20
2022-09-30T00:04:24.606Z,15.10
2022-09-30T00:07:15.102Z,15.00
2022-09-30T00:09:45.812Z,14.90
2022-09-30T00:12:17.324Z,14.80
2022-09-30T00:14:49.003Z,14.80
2022-09-30T00:17:19.262Z,14.80
2022-09-30T00:19:50.155Z,14.70
2022-09-30T00:22:22.568Z,14.70
2022-09-30T00:24:53.848Z,14.80
2022-09-30T00:27:24.792Z,14.80
2022-09-30T00:29:57.084Z,15.00
2022-09-30T00:32:27.774Z,15.20
2022-09-30T00:34:59.428Z,15.30
2022-09-30T00:37:30.342Z,15.40
2022-09-30T00:40:02.953Z,15.60
2022-09-30T00:42:33.928Z,15.70
2022-09-30T00:45:13.691Z,15.90
2022-09-30T00:47:58.651Z,16.00
2022-09-30T00:50:31.396Z,16.00
2022-09-30T00:53:08.703Z,16.10
2022-09-30T00:55:43.342Z,16.40
2022-09-30T00:58:21.250Z,16.70
2022-09-30T01:00:54.057Z,17.20
2022-09-30T01:03:25.401Z,17.60
2022-09-30T01:05:57.338Z,17.80
2022-09-30T01:08:34.280Z,17.90
2022-09-30T01:11:08.190Z,17.80
2022-09-30T01:16:34.544Z,17.30
2022-09-30T01:19:33.650Z,17.20
2022-09-30T01:22:24.661Z,17.00
2022-09-30T01:25:33.947Z,16.80
2022-09-30T01:28:22.116Z,16.70
2022-09-30T01:30:58.440Z,16.80
2022-09-30T01:33:53.853Z,16.90
2022-09-30T01:36:53.078Z,17.00
2022-09-30T01:39:37.525Z,16.90
2022-09-30T01:42:26.469Z,16.70
2022-09-30T01:45:05.469Z,16.60
2022-09-30T01:47:46.623Z,16.60
2022-09-30T01:50:47.148Z,16.80
2022-09-30T01:53:51.640Z,16.90
2022-09-30T01:56:36.979Z,16.80
2022-09-30T01:59:26.098Z,16.80
2022-09-30T02:02:11.067Z,16.80
2022-09-30T02:05:13.859Z,16.80
2022-09-30T02:08:13.439Z,16.90
2022-09-30T02:10:52.720Z,17.10
2022-09-30T02:13:34.365Z,17.40
2022-09-30T02:16:15.107Z,17.60
2022-09-30T02:18:51.286Z,17.80
2022-09-30T02:21:29.626Z,17.80
2022-09-30T02:24:08.592Z,17.70
2022-09-30T02:26:48.608Z,17.70
2022-09-30T02:29:27.493Z,17.80
2022-09-30T02:32:03.894Z,18.00
2022-09-30T02:34:53.351Z,18.20
2022-09-30T02:37:40.328Z,18.10
2022-09-30T02:40:17.592Z,18.00
2022-09-30T02:42:51.187Z,17.90
2022-09-30T02:45:26.398Z,17.80
2022-09-30T02:48:07.538Z,17.60
2022-09-30T02:51:08.841Z,17.40
2022-09-30T02:54:00.989Z,17.30
2022-09-30T02:56:58.557Z,17.20
2022-09-30T02:59:30.604Z,17.10
2022-09-30T03:02:01.946Z,17.30
2022-09-30T03:04:37.359Z,17.60
2022-09-30T03:07:09.888Z,17.80
2022-09-30T03:09:40.936Z,18.10
2022-09-30T03:12:22.908Z,18.30
2022-09-30T03:15:21.633Z,18.40
2022-09-30T03:18:10.037Z,18.10
2022-09-30T03:20:58.961Z,17.60
2022-09-30T03:23:32.397Z,17.30
2022-09-30T03:26:31.846Z,16.90
2022-09-30T03:29:29.506Z,16.60
2022-09-30T03:32:22.123Z,16.60
2022-09-30T03:35:16.813Z,16.80
2022-09-30T03:38:14.075Z,17.00
2022-09-30T03:40:52.222Z,17.20
2022-09-30T03:43:31.411Z,17.40
2022-09-30T03:46:30.188Z,17.60
2022-09-30T03:49:05.014Z,17.60
2022-09-30T03:51:39.118Z,17.70
2022-09-30T03:54:18.736Z,17.70
2022-09-30T03:56:49.924Z,17.60
2022-09-30T03:59:26.479Z,17.70
2022-09-30T04:02:01.816Z,17.90
2022-09-30T04:04:33.458Z,17.90
2022-09-30T04:07:04.319Z,17.80
2022-09-30T04:09:35.072Z,17.60
2022-09-30T04:12:05.956Z,17.40
2022-09-30T04:14:37.546Z,17.10
2022-09-30T04:17:09.208Z,17.00
2022-09-30T04:19:42.385Z,16.80
2022-09-30T04:22:13.565Z,16.80
2022-09-30T04:24:45.850Z,16.90
2022-09-30T04:27:17.433Z,17.00
2022-09-30T04:29:48.218Z,17.00
2022-09-30T04:32:19.161Z,17.10
2022-09-30T04:34:50.456Z,17.20
2022-09-30T04:37:21.088Z,17.30
2022-09-30T04:39:51.723Z,17.40
2022-09-30T04:42:22.275Z,17.30
2022-09-30T04:44:56.505Z,17.30
2022-09-30T04:47:27.530Z,17.30
2022-09-30T04:50:00.382Z,17.40
2022-09-30T04:52:33.945Z,17.40
2022-09-30T04:55:05.480Z,17.40
2022-09-30T04:57:37.430Z,17.20
2022-09-30T05:00:11.720Z,17.00
2022-09-30T05:02:43.326Z,16.80
2022-09-30T05:05:18.241Z,16.60
2022-09-30T05:07:49.307Z,16.60
2022-09-30T05:10:20.077Z,16.60
2022-09-30T05:12:50.914Z,16.60
2022-09-30T05:15:21.769Z,16.60
2022-09-30T05:17:56.198Z,16.60
2022-09-30T05:20:26.776Z,16.60
2022-09-30T05:22:59.041Z,16.60
2022-09-30T05:25:29.675Z,16.50
2022-09-30T05:28:01.291Z,16.40
2022-09-30T05:30:34.036Z,16.40
2022-09-30T05:33:05.233Z,16.50
2022-09-30T05:35:36.541Z,16.60
2022-09-30T05:38:07.229Z,16.60
2022-09-30T05:40:46.332Z,16.60
2022-09-30T05:43:16.958Z,16.40
2022-09-30T05:45:56.510Z,16.20
2022-09-30T05:48:28.416Z,16.10
2022-09-30T05:51:03.189Z,16.00
2022-09-30T05:53:35.337Z,16.00
2022-09-30T05:56:06.239Z,16.00
2022-09-30T05:58:38.167Z,16.00
2022-09-30T06:01:13.846Z,16.00
2022-09-30T06:03:47.286Z,15.90
2022-09-30T06:06:19.380Z,15.90
2022-09-30T06:08:57.405Z,15.80
2022-09-30T06:11:29.261Z,15.70
2022-09-30T06:13:59.863Z,15.70
2022-09-30T06:16:31.761Z,15.60
2022-09-30T06:19:04.751Z,15.50
2022-09-30T06:21:36.552Z,15.50
2022-09-30T06:24:08.350Z,15.50
2022-09-30T06:26:39.148Z,15.50
2022-09-30T06:29:10.000Z,15.50
2022-09-30T06:31:40.984Z,15.50
2022-09-30T06:34:12.432Z,15.50
2022-09-30T06:36:43.033Z,15.40
2022-09-30T06:39:13.911Z,15.30
2022-09-30T06:41:46.320Z,15.20
2022-09-30T06:44:18.132Z,15.10
2022-09-30T06:46:53.977Z,14.90
2022-09-30T06:49:26.084Z,14.80
2022-09-30T06:51:57.608Z,14.80
2022-09-30T06:54:30.264Z,14.80
2022-09-30T06:57:00.827Z,14.80
2022-09-30T06:59:32.286Z,14.70
2022-09-30T07:02:03.113Z,14.70
2022-09-30T07:04:34.324Z,14.60
2022-09-30T07:07:06.384Z,14.60
2022-09-30T07:09:37.317Z,14.60
2022-09-30T07:12:10.955Z,14.60
2022-09-30T07:14:43.491Z,14.60
2022-09-30T07:17:15.218Z,14.60
2022-09-30T07:19:47.037Z,14.50
2022-09-30T07:22:30.650Z,14.50
2022-09-30T07:25:04.619Z,14.40
2022-09-30T07:27:37.284Z,14.30
2022-09-30T07:30:11.548Z,14.30
2022-09-30T07:32:44.597Z,14.20
2022-09-30T07:35:15.157Z,14.10
2022-09-30T07:37:46.884Z,14.00
2022-09-30T07:40:18.426Z,13.90
2022-09-30T07:42:49.110Z,13.80
2022-09-30T07:45:22.504Z,13.80
2022-09-30T07:47:53.952Z,13.70
2022-09-30T07:50:25.906Z,13.60
2022-09-30T07:52:59.780Z,13.50
2022-09-30T07:55:30.613Z,13.50
2022-09-30T07:58:01.361Z,13.50
2022-09-30T08:00:42.086Z,13.40
2022-09-30T08:03:13.982Z,13.30
2022-09-30T08:05:51.530Z,13.30
2022-09-30T08:08:23.448Z,13.20
2022-09-30T08:10:55.351Z,13.10
2022-09-30T08:13:26.227Z,13.10
2022-09-30T08:15:57.778Z,13.00
2022-09-30T08:18:32.882Z,13.00
2022-09-30T08:21:08.973Z,13.00
2022-09-30T08:23:40.511Z,13.00
2022-09-30T08:26:14.118Z,12.90
2022-09-30T08:28:48.763Z,12.90
2022-09-30T08:31:24.645Z,12.90
2022-09-30T08:33:56.957Z,12.80
2022-09-30T08:36:29.159Z,12.80
2022-09-30T08:39:07.112Z,12.70
2022-09-30T08:42:25.451Z,12.70
2022-09-30T08:45:16.317Z,12.70
2022-09-30T08:48:03.824Z,12.70
2022-09-30T08:50:50.573Z,12.70
2022-09-30T08:53:32.748Z,12.60
2022-09-30T08:56:05.024Z,12.60
2022-09-30T08:58:44.905Z,12.60
2022-09-30T09:01:36.264Z,12.60
2022-09-30T09:04:10.302Z,12.50
2022-09-30T09:07:03.020Z,12.50
2022-09-30T09:09:37.422Z,12.40
2022-09-30T09:12:33.884Z,12.40
2022-09-30T09:15:44.096Z,12.40
2022-09-30T09:18:40.570Z,12.30
2022-09-30T09:21:26.101Z,12.30
2022-09-30T09:24:02.525Z,12.20
2022-09-30T09:26:39.937Z,12.20
2022-09-30T09:29:13.867Z,12.20
2022-09-30T09:31:45.889Z,12.20
2022-09-30T09:34:19.595Z,12.20
2022-09-30T09:37:20.659Z,12.10
2022-09-30T09:40:18.683Z,12.10
2022-09-30T09:43:24.986Z,12.10
2022-09-30T09:46:27.584Z,12.10
2022-09-30T09:49:22.882Z,12.10
2022-09-30T09:52:29.902Z,12.10
2022-09-30T09:55:01.804Z,12.10
2022-09-30T09:57:36.332Z,12.10
2022-09-30T10:00:28.760Z,12.00
2022-09-30T10:03:10.638Z,12.00
2022-09-30T10:05:42.111Z,12.00
2022-09-30T10:08:23.859Z,11.90
2022-09-30T10:11:03.401Z,12.00
2022-09-30T10:13:51.887Z,11.90
2022-09-30T10:16:48.982Z,11.90
2022-09-30T10:19:27.729Z,11.80
2022-09-30T10:22:20.206Z,11.80
2022-09-30T10:24:55.973Z,11.70
2022-09-30T10:27:38.182Z,11.70
2022-09-30T10:30:10.880Z,11.70
2022-09-30T10:32:43.434Z,11.60
2022-09-30T10:35:25.733Z,11.60
2022-09-30T10:37:58.278Z,11.60
2022-09-30T10:40:33.889Z,11.60
2022-09-30T10:43:05.428Z,11.60
2022-09-30T10:45:41.881Z,11.60
2022-09-30T10:48:22.861Z,11.50
2022-09-30T10:50:58.465Z,11.60
2022-09-30T10:53:37.650Z,11.50
2022-09-30T10:56:10.242Z,11.60
2022-09-30T11:01:38.967Z,11.60
2022-09-30T11:04:16.835Z,11.60
2022-09-30T11:06:49.333Z,11.60
2022-09-30T11:09:35.731Z,11.70
2022-09-30T11:12:41.506Z,11.70
2022-09-30T11:15:26.594Z,11.60
2022-09-30T11:18:17.482Z,11.70
2022-09-30T11:21:00.242Z,11.60
2022-09-30T11:24:02.726Z,11.60
2022-09-30T11:26:58.879Z,11.60
2022-09-30T11:29:49.413Z,11.60
2022-09-30T11:32:46.783Z,11.70
2022-09-30T11:35:27.319Z,11.70
2022-09-30T11:38:19.821Z,11.70
2022-09-30T11:41:06.759Z,11.70
2022-09-30T11:44:14.236Z,11.70
2022-09-30T11:47:24.158Z,11.60
2022-09-30T11:50:22.037Z,11.60
2022-09-30T11:52:59.158Z,11.60
2022-09-30T11:55:35.849Z,11.60
2022-09-30T11:58:39.373Z,11.60
2022-09-30T12:01:16.344Z,11.60
2022-09-30T12:04:09.853Z,11.60
2022-09-30T12:06:57.376Z,11.70
2022-09-30T12:09:30.013Z,11.70
2022-09-30T12:12:16.925Z,11.70
2022-09-30T12:15:08.576Z,11.70
2022-09-30T12:18:12.882Z,11.70
2022-09-30T12:21:18.379Z,11.60
2022-09-30T12:23:59.841Z,11.60
2022-09-30T12:26:31.078Z,11.60
2022-09-30T12:29:33.875Z,11.60
2022-09-30T12:32:13.696Z,11.50
2022-09-30T12:35:06.271Z,11.50
2022-09-30T12:38:03.396Z,11.50
2022-09-30T12:41:04.554Z,11.50
2022-09-30T12:43:37.591Z,11.40
2022-09-30T12:46:20.676Z,11.40
2022-09-30T12:48:58.571Z,11.40
2022-09-30T12:51:32.743Z,11.40
2022-09-30T12:54:16.575Z,11.40
2022-09-30T12:56:54.792Z,11.50
2022-09-30T12:59:32.103Z,11.50
2022-09-30T13:02:05.455Z,11.50
2022-09-30T13:04:39.448Z,11.50
2022-09-30T13:07:15.298Z,11.50
2022-09-30T13:10:23.784Z,11.50
2022-09-30T13:13:32.296Z,11.50
2022-09-30T13:16:08.177Z,11.50
2022-09-30T13:18:39.103Z,11.50
2022-09-30T13:21:13.491Z,11.50
2022-09-30T13:23:47.903Z,11.50
2022-09-30T13:26:30.344Z,11.50
2022-09-30T13:29:03.905Z,11.50
2022-09-30T13:31:55.349Z,11.40
2022-09-30T13:34:37.390Z,11.50
2022-09-30T13:37:08.053Z,11.40
2022-09-30T13:39:54.618Z,11.40
2022-09-30T13:42:31.523Z,11.40
2022-09-30T13:45:10.284Z,11.40
2022-09-30T13:47:53.472Z,11.30
2022-09-30T13:50:33.595Z,11.30
2022-09-30T13:53:09.243Z,11.30
2022-09-30T13:55:52.619Z,11.20
2022-09-30T13:58:41.351Z,11.20
2022-09-30T14:01:40.901Z,11.20
2022-09-30T14:04:38.058Z,11.10
2022-09-30T14:07:35.437Z,11.10
2022-09-30T14:10:25.549Z,11.10
2022-09-30T14:13:08.764Z,11.10
2022-09-30T14:16:00.322Z,11.10
2022-09-30T14:18:40.554Z,11.10
2022-09-30T14:21:41.056Z,11.10
2022-09-30T14:24:25.634Z,11.10
2022-09-30T14:27:23.278Z,11.10
2022-09-30T14:30:23.289Z,11.10
2022-09-30T14:33:12.225Z,11.10
2022-09-30T14:35:43.624Z,11.10
2022-09-30T14:38:29.861Z,11.10
2022-09-30T14:41:13.216Z,11.10
2022-09-30T14:43:48.166Z,11.10
2022-09-30T14:46:43.803Z,11.10
2022-09-30T14:49:19.116Z,11.10
2022-09-30T14:51:51.090Z,11.10
2022-09-30T14:54:32.577Z,11.10
2022-09-30T14:57:06.223Z,11.10
2022-09-30T14:59:43.754Z,11.10
2022-09-30T15:02:23.425Z,11.00
2022-09-30T15:05:01.184Z,11.00
2022-09-30T15:07:32.963Z,11.00
2022-09-30T15:10:05.310Z,10.90
2022-09-30T15:12:39.520Z,11.00
2022-09-30T15:15:27.704Z,10.90
2022-09-30T15:17:57.995Z,10.90
2022-09-30T15:20:34.451Z,10.90
2022-09-30T15:23:12.257Z,10.90
2022-09-30T15:25:43.445Z,11.00
2022-09-30T15:28:14.509Z,11.00
2022-09-30T15:30:45.771Z,10.90
2022-09-30T15:33:21.516Z,10.90
2022-09-30T15:35:53.555Z,10.90
2022-09-30T15:38:36.859Z,10.90
2022-09-30T15:41:15.861Z,10.90
2022-09-30T15:43:48.168Z,10.90
2022-09-30T15:46:23.935Z,10.80
2022-09-30T15:48:54.863Z,10.80
2022-09-30T15:51:32.516Z,10.90
2022-09-30T15:54:18.598Z,10.90
2022-09-30T15:56:48.997Z,10.90
2022-09-30T15:59:19.395Z,10.80
2022-09-30T16:01:57.458Z,10.80
2022-09-30T16:04:28.173Z,10.80
2022-09-30T16:07:09.717Z,10.80
2022-09-30T16:09:42.552Z,10.80
2022-09-30T16:12:24.578Z,10.80
2022-09-30T16:15:17.686Z,10.70
2022-09-30T16:17:52.926Z,10.70
2022-09-30T16:20:28.280Z,10.70
2022-09-30T16:23:00.915Z,10.70
2022-09-30T16:25:35.616Z,10.70
2022-09-30T16:28:14.312Z,10.70
2022-09-30T16:30:51.377Z,10.70
2022-09-30T16:33:21.663Z,10.70
2022-09-30T16:35:52.060Z,10.70
2022-09-30T16:38:22.282Z,10.70
2022-09-30T16:40:52.563Z,10.70
2022-09-30T16:43:22.782Z,10.70
2022-09-30T16:45:53.142Z,10.70
2022-09-30T16:48:23.455Z,10.70
2022-09-30T16:51:17.490Z,10.70
2022-09-30T16:53:49.600Z,10.70
2022-09-30T16:56:21.794Z,10.70
2022-09-30T16:58:52.444Z,10.70
2022-09-30T17:01:25.529Z,10.60
2022-09-30T17:04:00.370Z,10.60
2022-09-30T17:06:32.755Z,10.60
2022-09-30T17:09:03.766Z,10.60
2022-09-30T17:11:37.312Z,10.60
2022-09-30T17:14:08.090Z,10.60
2022-09-30T17:16:38.513Z,10.60
2022-09-30T17:19:08.722Z,10.60
2022-09-30T17:21:39.087Z,10.60
2022-09-30T17:24:09.347Z,10.50
2022-09-30T17:26:40.966Z,10.60
2022-09-30T17:29:31.307Z,10.60
2022-09-30T17:32:03.016Z,10.50
2022-09-30T17:34:33.371Z,10.50
2022-09-30T17:37:03.522Z,10.50
2022-09-30T17:39:34.172Z,10.50
2022-09-30T17:42:22.285Z,10.50
2022-09-30T17:44:52.894Z,10.40
2022-09-30T17:47:24.211Z,10.40
2022-09-30T17:49:54.736Z,10.40
2022-09-30T17:52:27.028Z,10.30
2022-09-30T17:54:57.237Z,10.30
2022-09-30T17:57:30.105Z,10.30
2022-09-30T18:00:02.090Z,10.20
2022-09-30T18:02:33.321Z,10.20
2022-09-30T18:05:03.563Z,10.20
2022-09-30T18:07:34.016Z,10.10
2022-09-30T18:10:04.315Z,10.10
2022-09-30T18:12:36.011Z,10.10
2022-09-30T18:15:08.755Z,10.10
2022-09-30T18:17:40.486Z,10.20
2022-09-30T18:20:11.191Z,10.10
2022-09-30T18:22:42.116Z,10.10
2022-09-30T18:25:21.790Z,10.10
2022-09-30T18:27:59.553Z,10.10
2022-09-30T18:30:31.100Z,10.10
2022-09-30T18:33:01.442Z,10.10
2022-09-30T18:35:35.028Z,10.10
2022-09-30T18:38:06.294Z,10.10
2022-09-30T18:40:36.737Z,10.10
2022-09-30T18:43:08.271Z,10.20
2022-09-30T18:45:39.975Z,10.20
2022-09-30T18:48:11.378Z,10.20
2022-09-30T18:50:41.638Z,10.20
2022-09-30T18:53:15.234Z,10.20
2022-09-30T18:55:48.024Z,10.20
2022-09-30T18:58:19.405Z,10.20
2022-09-30T19:00:50.054Z,10.20
2022-09-30T19:03:21.681Z,10.20
2022-09-30T19:05:52.894Z,10.20
2022-09-30T19:08:23.393Z,10.20
2022-09-30T19:10:54.546Z,10.20
2022-09-30T19:13:29.051Z,10.20
2022-09-30T19:16:08.279Z,10.20
2022-09-30T19:18:39.130Z,10.20
2022-09-30T19:21:14.452Z,10.20
2022-09-30T19:23:45.406Z,10.30
2022-09-30T19:26:17.282Z,10.30
2022-09-30T19:28:47.560Z,10.30
2022-09-30T19:31:21.203Z,10.20
2022-09-30T19:33:56.675Z,10.20
2022-09-30T19:36:29.066Z,10.20
2022-09-30T19:39:11.492Z,10.20
2022-09-30T19:41:42.369Z,10.20
2022-09-30T19:44:12.986Z,10.10
2022-09-30T19:46:43.145Z,10.10
2022-09-30T19:49:14.372Z,10.10
2022-09-30T19:51:44.899Z,10.00
2022-09-30T19:54:15.337Z,10.00
2022-09-30T19:56:45.485Z,10.00
2022-09-30T19:59:15.666Z,10.00
2022-09-30T20:01:46.520Z,9.90
2022-09-30T20:04:20.381Z,9.90
2022-09-30T20:06:50.611Z,9.90
2022-09-30T20:09:22.205Z,9.90
2022-09-30T20:11:54.401Z,9.90
2022-09-30T20:14:44.179Z,9.90
2022-09-30T20:17:15.494Z,9.90
2022-09-30T20:20:08.014Z,10.00
2022-09-30T20:22:38.246Z,9.90
2022-09-30T20:25:10.883Z,10.00
2022-09-30T20:27:45.920Z,10.00
2022-09-30T20:30:19.009Z,10.00
2022-09-30T20:32:49.323Z,10.00
2022-09-30T20:35:19.631Z,10.10
2022-09-30T20:37:49.946Z,10.10
2022-09-30T20:40:20.653Z,10.10
2022-09-30T20:42:53.150Z,10.20
2022-09-30T20:45:23.493Z,10.20
2022-09-30T20:47:53.748Z,10.30
2022-09-30T20:50:37.059Z,10.30
2022-09-30T20:53:13.819Z,10.30
2022-09-30T20:55:47.383Z,10.30
2022-09-30T20:58:17.986Z,10.20
2022-09-30T21:00:48.478Z,10.30
2022-09-30T21:03:19.185Z,10.30
2022-09-30T21:05:56.308Z,10.30
2022-09-30T21:08:26.481Z,10.30
2022-09-30T21:10:58.607Z,10.30
2022-09-30T21:13:30.469Z,10.30
2022-09-30T21:16:06.639Z,10.30
2022-09-30T21:18:37.081Z,10.30
2022-09-30T21:21:08.080Z,10.30
2022-09-30T21:23:39.137Z,10.40
2022-09-30T21:26:11.820Z,10.40
2022-09-30T21:28:45.596Z,10.50
2022-09-30T21:31:27.176Z,10.60
2022-09-30T21:34:02.792Z,10.70
2022-09-30T21:36:33.850Z,10.80
2022-09-30T21:39:05.154Z,10.80
2022-09-30T21:41:37.170Z,10.80
2022-09-30T21:44:07.542Z,10.80
2022-09-30T21:46:38.691Z,10.90
2022-09-30T21:49:21.384Z,10.80
2022-09-30T21:51:52.841Z,10.90
2022-09-30T21:54:25.012Z,11.00
2022-09-30T21:56:55.354Z,11.10
2022-09-30T21:59:26.688Z,11.20
2022-09-30T22:01:57.024Z,11.30
2022-09-30T22:04:27.348Z,11.40
2022-09-30T22:06:57.514Z,11.60
2022-09-30T22:09:28.998Z,11.80
2022-09-30T22:11:59.775Z,11.90
2022-09-30T22:14:30.356Z,11.90
2022-09-30T22:17:01.553Z,11.90
2022-09-30T22:19:33.042Z,12.00
2022-09-30T22:22:03.835Z,12.10
2022-09-30T22:24:34.831Z,12.20
2022-09-30T22:27:09.518Z,12.40
2022-09-30T22:29:39.844Z,12.50
2022-09-30T22:32:10.100Z,12.60
2022-09-30T22:34:58.706Z,12.50
2022-09-30T22:37:46.725Z,12.40
2022-09-30T22:40:16.922Z,12.30
2022-09-30T22:42:48.265Z,12.50
2022-09-30T22:45:18.947Z,12.70
2022-09-30T22:47:51.196Z,12.70
2022-09-30T22:50:22.232Z,12.60
2022-09-30T22:52:52.835Z,12.60
2022-09-30T22:55:31.960Z,12.60
2022-09-30T22:58:05.404Z,12.70
2022-09-30T23:00:35.970Z,12.90
2022-09-30T23:03:11.642Z,13.00
2022-09-30T23:05:46.023Z,12.90
2022-09-30T23:08:27.389Z,12.90
2022-09-30T23:10:58.426Z,13.00
2022-09-30T23:13:33.735Z,13.00
2022-09-30T23:16:06.340Z,13.10
2022-09-30T23:18:38.558Z,13.20
2022-09-30T23:21:14.448Z,13.20
2022-09-30T23:23:46.610Z,13.40
2022-09-30T23:26:22.610Z,13.50
2022-09-30T23:29:04.319Z,13.60
2022-09-30T23:31:35.209Z,13.60
2022-09-30T23:34:07.089Z,13.60
2022-09-30T23:36:39.669Z,13.80
2022-09-30T23:39:22.467Z,13.90
2022-09-30T23:41:53.115Z,14.10
2022-09-30T23:44:23.287Z,14.30
2022-09-30T23:47:11.337Z,14.40
2022-09-30T23:49:44.141Z,14.50
2022-09-30T23:52:20.096Z,14.70
2022-09-30T23:54:51.527Z,14.80
2022-09-30T23:57:22.168Z,14.80
2022-09-30T23:59:53.828Z,14.70
